Авиационная погода в Ботсфьорде

Регион: 
Погода METAR: 
ENBS 061020Z 26022KT 9999 DRSN NSC M06/M10 Q1013
Время наблюдения
2021-12-06T10:20:00Z
Температура C
-6.0
Точка росы
-10.0
Направление ветра
260
Скорость ветра (узлы)
22
Метео видимость
6.21
Явления погоды
DRSN
Условия полета
VFR